Time;durP1;ratioP1;P1;durP2;ratioP2;P2;SDS_P1;SDS_P2;PMS_P1;PMS_P2;Temp;Humidity;BMP_temperature;BMP_pressure;BME280_temperature;BME280_humidity;BME280_pressure;Samples;Min_cycle;Max_cycle;Signal;HPM_P1;HPM_P2
2021/07/03 00:01:37;;;;;;;25.08;15.13;;;19.10;94.80;;;;;;5133521;27;20239;-74
2021/07/03 00:04:04;;;;;;;27.55;15.10;;;19.10;94.90;;;;;;5130219;27;20640;-74
2021/07/03 00:06:31;;;;;;;22.98;15.32;;;19.10;95.00;;;;;;5129042;27;20208;-75
2021/07/03 00:08:59;;;;;;;25.13;15.43;;;19.10;95.10;;;;;;5129899;27;20215;-72
2021/07/03 00:11:25;;;;;;;22.63;14.98;;;19.00;95.10;;;;;;5110686;27;20220;-74
2021/07/03 00:13:52;;;;;;;27.25;15.68;;;19.00;95.20;;;;;;5130048;27;20608;-74
2021/07/03 00:16:19;;;;;;;25.10;15.38;;;19.00;95.30;;;;;;5128134;27;20657;-73
2021/07/03 00:18:46;;;;;;;23.85;15.02;;;19.00;95.40;;;;;;5126976;27;20204;-73
2021/07/03 00:21:13;;;;;;;27.48;16.45;;;19.00;95.40;;;;;;5109578;27;20258;-74
2021/07/03 00:23:39;;;;;;;22.40;15.90;;;18.90;95.50;;;;;;5130600;27;20257;-74
2021/07/03 00:26:08;;;;;;;27.27;15.98;;;18.90;95.60;;;;;;5127504;27;20249;-74
2021/07/03 00:28:34;;;;;;;23.30;16.00;;;18.80;95.70;;;;;;5108405;27;20733;-73
2021/07/03 00:31:01;;;;;;;28.33;16.63;;;18.80;95.80;;;;;;5131996;27;20668;-73
2021/07/03 00:33:28;;;;;;;25.55;16.08;;;18.80;95.90;;;;;;5129906;27;20250;-75
2021/07/03 00:35:55;;;;;;;23.73;15.43;;;18.80;95.90;;;;;;5129085;27;20200;-76
2021/07/03 00:38:22;;;;;;;23.73;16.13;;;18.70;95.90;;;;;;5135325;27;20275;-73
2021/07/03 00:40:49;;;;;;;27.20;15.00;;;18.70;96.00;;;;;;5126421;27;20293;-74
2021/07/03 00:43:17;;;;;;;30.17;15.95;;;18.70;96.10;;;;;;5128678;27;20196;-74
2021/07/03 00:45:44;;;;;;;24.83;16.20;;;18.70;96.20;;;;;;5126653;27;20220;-74
2021/07/03 00:48:11;;;;;;;25.63;16.20;;;18.70;96.20;;;;;;5107667;27;20209;-74
2021/07/03 00:50:38;;;;;;;29.50;16.08;;;18.60;96.60;;;;;;5126665;27;20235;-73
2021/07/03 00:53:05;;;;;;;25.55;16.35;;;18.60;96.30;;;;;;5128566;27;20212;-74
2021/07/03 00:55:38;;;;;;;26.88;16.30;;;18.60;96.40;;;;;;5109125;27;20196;-73
2021/07/03 00:58:06;;;;;;;25.05;14.85;;;18.60;96.50;;;;;;5110799;27;20199;-74
2021/07/03 01:00:37;;;;;;;25.80;15.32;;;18.60;96.60;;;;;;5104732;27;21296;-74
2021/07/03 01:03:05;;;;;;;24.98;15.25;;;18.50;97.00;;;;;;5109166;27;20262;-74
2021/07/03 01:05:32;;;;;;;27.90;16.42;;;18.50;96.70;;;;;;5109210;27;20207;-73
2021/07/03 01:08:00;;;;;;;27.42;16.38;;;18.50;96.80;;;;;;5109294;27;20200;-73
2021/07/03 01:10:30;;;;;;;25.75;16.00;;;18.50;96.80;;;;;;5108603;27;20293;-73
2021/07/03 01:13:05;;;;;;;26.20;16.10;;;18.50;96.90;;;;;;5141204;27;20286;-73
2021/07/03 01:15:32;;;;;;;26.90;15.68;;;18.50;96.90;;;;;;5127748;27;20722;-74
2021/07/03 01:18:01;;;;;;;25.92;15.70;;;18.50;97.00;;;;;;5129234;27;20188;-74
2021/07/03 01:20:28;;;;;;;30.13;16.27;;;18.50;97.10;;;;;;5107095;27;20210;-75
2021/07/03 01:22:57;;;;;;;27.45;16.90;;;18.50;97.20;;;;;;5131518;27;20388;-74
2021/07/03 01:25:25;;;;;;;24.50;15.57;;;18.40;97.30;;;;;;5107661;27;20252;-74
2021/07/03 01:27:59;;;;;;;23.65;15.55;;;18.40;97.30;;;;;;5109174;27;20216;-74
2021/07/03 01:30:28;;;;;;;25.50;15.50;;;18.40;97.40;;;;;;5107181;27;20208;-74
2021/07/03 01:32:57;;;;;;;22.23;15.10;;;18.40;97.50;;;;;;5110405;27;20705;-73
2021/07/03 01:35:28;;;;;;;24.35;15.25;;;18.40;97.50;;;;;;5125282;27;20216;-74
2021/07/03 01:37:59;;;;;;;24.50;16.23;;;18.40;97.50;;;;;;5111339;27;20234;-75
2021/07/03 01:40:28;;;;;;;26.92;15.48;;;18.40;97.60;;;;;;5105762;27;20674;-74
2021/07/03 01:42:56;;;;;;;25.58;15.88;;;18.30;97.50;;;;;;5108934;27;20284;-75
2021/07/03 01:45:24;;;;;;;26.30;16.42;;;18.30;97.60;;;;;;5113240;27;20230;-73
2021/07/03 01:47:51;;;;;;;25.35;16.15;;;18.30;97.60;;;;;;5110385;27;20200;-74
2021/07/03 01:50:18;;;;;;;28.65;16.45;;;18.30;97.70;;;;;;5131290;27;20196;-74
2021/07/03 01:52:46;;;;;;;27.98;15.75;;;18.20;97.80;;;;;;5108227;27;20200;-74
2021/07/03 01:55:19;;;;;;;25.17;16.08;;;18.20;97.90;;;;;;5111689;27;20207;-73
2021/07/03 01:57:47;;;;;;;25.83;15.77;;;18.20;98.00;;;;;;5109581;27;20208;-73
2021/07/03 02:00:25;;;;;;;26.92;15.93;;;18.20;98.10;;;;;;5127194;27;20203;-74
2021/07/03 02:03:06;;;;;;;23.55;16.35;;;18.10;98.10;;;;;;5108960;28;20227;-74
2021/07/03 02:05:40;;;;;;;29.92;16.23;;;18.10;98.20;;;;;;5132943;27;20196;-74
2021/07/03 02:08:09;;;;;;;25.38;16.50;;;18.10;98.30;;;;;;5108887;27;20193;-74
2021/07/03 02:10:40;;;;;;;27.15;15.63;;;18.10;98.40;;;;;;5106825;27;20224;-73
2021/07/03 02:13:08;;;;;;;25.52;15.68;;;18.10;98.50;;;;;;5106196;27;20774;-75
2021/07/03 02:15:38;;;;;;;31.63;15.60;;;18.10;98.60;;;;;;5111503;27;20311;-75
2021/07/03 02:18:20;;;;;;;27.73;16.38;;;18.10;98.70;;;;;;5106902;27;20250;-74
2021/07/03 02:20:48;;;;;;;26.95;16.25;;;18.10;98.80;;;;;;5103706;28;20204;-75
2021/07/03 02:23:20;;;;;;;23.05;15.55;;;18.10;98.90;;;;;;5109141;27;20231;-75
2021/07/03 02:25:53;;;;;;;24.63;15.25;;;18.10;99.10;;;;;;5114087;27;20719;-75
2021/07/03 02:28:25;;;;;;;28.45;16.30;;;18.10;99.20;;;;;;5107124;27;20219;-75
2021/07/03 02:31:01;;;;;;;28.77;16.52;;;18.10;99.30;;;;;;5105752;28;20204;-74
2021/07/03 02:33:33;;;;;;;24.85;16.02;;;18.10;99.40;;;;;;5108913;27;20200;-75
2021/07/03 02:36:00;;;;;;;25.50;15.88;;;18.10;99.50;;;;;;5126699;27;20274;-75
2021/07/03 02:38:30;;;;;;;34.05;16.75;;;18.10;99.60;;;;;;5108874;27;20208;-74
2021/07/03 02:40:59;;;;;;;24.02;16.60;;;18.10;99.70;;;;;;5107776;27;20196;-75
2021/07/03 02:43:28;;;;;;;27.77;16.42;;;18.10;99.80;;;;;;5107285;27;20230;-74
2021/07/03 02:46:00;;;;;;;26.20;16.70;;;18.10;99.90;;;;;;5108641;28;20200;-75
2021/07/03 02:48:27;;;;;;;26.98;15.88;;;18.10;99.90;;;;;;5132627;27;20189;-75
2021/07/03 02:50:54;;;;;;;25.40;15.52;;;18.10;99.90;;;;;;5108559;27;20204;-74
2021/07/03 02:53:22;;;;;;;27.40;16.00;;;18.10;99.90;;;;;;5109833;28;20287;-73
2021/07/03 02:55:49;;;;;;;23.33;14.93;;;18.10;99.90;;;;;;5126468;27;20196;-75
2021/07/03 02:58:18;;;;;;;23.65;15.10;;;18.20;99.90;;;;;;5108024;28;20200;-74
2021/07/03 03:00:45;;;;;;;25.25;14.63;;;18.10;99.90;;;;;;5125309;27;20193;-76
2021/07/03 03:03:12;;;;;;;24.45;14.75;;;18.10;99.90;;;;;;5106947;27;20234;-74
2021/07/03 03:05:39;;;;;;;23.02;14.93;;;18.20;99.90;;;;;;5108047;28;20235;-74
2021/07/03 03:08:06;;;;;;;26.60;14.13;;;18.20;99.90;;;;;;5127479;27;20189;-74
2021/07/03 03:10:33;;;;;;;25.75;13.57;;;18.10;99.90;;;;;;5126071;27;20946;-75
2021/07/03 03:13:00;;;;;;;21.73;14.02;;;18.20;99.90;;;;;;5130010;27;20773;-74
2021/07/03 03:15:32;;;;;;;21.45;13.48;;;18.10;99.90;;;;;;5103550;28;20215;-73
2021/07/03 03:18:04;;;;;;;24.00;13.23;;;18.20;99.90;;;;;;5109108;27;20220;-74
2021/07/03 03:20:33;;;;;;;24.02;13.73;;;18.20;99.90;;;;;;5106536;27;20304;-72
2021/07/03 03:23:00;;;;;;;24.73;13.05;;;18.10;99.90;;;;;;5111874;27;20311;-75
2021/07/03 03:25:28;;;;;;;21.02;12.32;;;18.20;99.90;;;;;;5126105;27;20192;-75
2021/07/03 03:27:56;;;;;;;20.25;12.50;;;18.10;99.90;;;;;;5111047;27;20197;-75
2021/07/03 03:30:23;;;;;;;25.88;12.93;;;18.20;99.90;;;;;;5112330;27;20676;-75
2021/07/03 03:32:52;;;;;;;22.20;12.77;;;18.20;99.90;;;;;;5111895;27;20228;-73
2021/07/03 03:35:20;;;;;;;20.80;12.63;;;18.20;99.90;;;;;;5111645;27;20317;-75
2021/07/03 03:37:49;;;;;;;22.85;12.38;;;18.20;99.90;;;;;;5112621;27;20554;-76
2021/07/03 03:40:22;;;;;;;20.15;12.73;;;18.20;99.90;;;;;;5130128;27;20279;-76
2021/07/03 03:42:49;;;;;;;27.33;13.13;;;18.20;99.90;;;;;;5110326;27;20568;-75
2021/07/03 03:45:18;;;;;;;22.45;13.35;;;18.20;99.90;;;;;;5115796;27;20621;-74
2021/07/03 03:47:45;;;;;;;25.92;13.48;;;18.20;99.90;;;;;;5109071;27;20596;-74
2021/07/03 03:50:14;;;;;;;22.10;13.43;;;18.20;99.90;;;;;;5112460;27;20204;-76
2021/07/03 03:52:41;;;;;;;26.58;12.80;;;18.20;99.90;;;;;;5109172;27;20293;-75
2021/07/03 03:55:09;;;;;;;21.65;13.35;;;18.20;99.90;;;;;;5128628;27;20216;-74
2021/07/03 03:57:39;;;;;;;22.35;13.88;;;18.20;99.90;;;;;;5109987;27;20211;-74
2021/07/03 04:00:13;;;;;;;29.15;14.32;;;18.10;99.90;;;;;;5130380;27;20219;-75
2021/07/03 04:02:42;;;;;;;22.10;13.55;;;18.10;99.90;;;;;;5134895;27;20212;-75
2021/07/03 04:05:11;;;;;;;19.98;13.70;;;18.10;99.90;;;;;;5114683;27;20639;-75
2021/07/03 04:07:42;;;;;;;24.20;13.32;;;18.10;99.90;;;;;;5110717;27;20203;-75
2021/07/03 04:10:12;;;;;;;23.70;14.15;;;18.10;99.90;;;;;;5107439;27;20200;-75
2021/07/03 04:12:39;;;;;;;26.17;13.55;;;18.10;99.90;;;;;;5116319;27;20211;-74
2021/07/03 04:15:08;;;;;;;26.98;13.82;;;18.10;99.90;;;;;;5127683;27;20253;-76
2021/07/03 04:17:35;;;;;;;26.27;14.40;;;18.20;99.90;;;;;;5129632;27;20201;-73
2021/07/03 04:20:02;;;;;;;28.05;14.88;;;18.10;99.90;;;;;;5127432;27;20200;-72
2021/07/03 04:22:29;;;;;;;26.40;14.45;;;18.20;99.90;;;;;;5130151;27;20199;-73
2021/07/03 04:24:57;;;;;;;25.50;13.38;;;18.20;99.90;;;;;;5110009;27;20665;-73
2021/07/03 04:27:24;;;;;;;25.55;14.23;;;18.20;99.90;;;;;;5128147;27;20197;-75
2021/07/03 04:29:51;;;;;;;25.52;13.77;;;18.20;99.90;;;;;;5126314;27;20193;-74
2021/07/03 04:32:18;;;;;;;28.05;14.23;;;18.20;99.90;;;;;;5129874;27;20205;-75
2021/07/03 04:34:45;;;;;;;26.50;14.88;;;18.20;99.90;;;;;;5129152;27;20196;-76
2021/07/03 04:37:11;;;;;;;26.15;14.45;;;18.20;99.90;;;;;;5129550;27;20280;-77
2021/07/03 04:39:39;;;;;;;24.92;15.57;;;18.30;99.90;;;;;;5127960;27;20208;-74
2021/07/03 04:42:07;;;;;;;23.13;14.00;;;18.30;99.90;;;;;;5111820;27;20201;-74
2021/07/03 04:44:34;;;;;;;23.15;14.27;;;18.30;99.90;;;;;;5127225;27;20204;-74
2021/07/03 04:47:01;;;;;;;27.67;15.10;;;18.30;99.90;;;;;;5131341;27;20254;-74
2021/07/03 04:49:31;;;;;;;28.38;16.10;;;18.40;99.90;;;;;;5129639;27;20197;-69
2021/07/03 04:51:58;;;;;;;26.42;15.18;;;18.40;99.90;;;;;;5128285;27;20208;-70
2021/07/03 04:54:25;;;;;;;27.52;16.08;;;18.40;99.90;;;;;;5129430;27;20603;-69
2021/07/03 04:57:06;;;;;;;35.00;17.08;;;18.40;99.90;;;;;;5129386;27;20200;-69
2021/07/03 04:59:35;;;;;;;36.22;17.63;;;18.50;99.90;;;;;;5127209;27;20216;-70
2021/07/03 05:02:02;;;;;;;32.10;17.23;;;18.50;99.90;;;;;;5125528;27;20229;-70
2021/07/03 05:04:28;;;;;;;34.40;18.83;;;18.50;99.90;;;;;;5127273;27;20197;-68
2021/07/03 05:06:55;;;;;;;35.10;19.77;;;18.60;99.90;;;;;;5127929;27;20201;-69
2021/07/03 05:09:22;;;;;;;38.47;20.38;;;18.60;99.90;;;;;;5126371;27;20215;-69
2021/07/03 05:11:49;;;;;;;34.75;20.35;;;18.70;99.90;;;;;;5128325;27;20909;-68
2021/07/03 05:14:16;;;;;;;34.78;19.52;;;18.60;99.90;;;;;;5127691;27;20610;-70
2021/07/03 05:16:44;;;;;;;35.90;20.05;;;18.70;99.90;;;;;;5127737;27;20201;-68
2021/07/03 05:19:11;;;;;;;34.50;21.30;;;18.70;99.90;;;;;;5128709;27;20208;-70
2021/07/03 05:21:38;;;;;;;38.30;21.88;;;18.70;99.90;;;;;;5127169;27;20883;-69
2021/07/03 05:24:06;;;;;;;44.22;23.35;;;18.70;99.90;;;;;;5124233;27;20629;-70
2021/07/03 05:26:33;;;;;;;39.40;22.48;;;18.70;99.90;;;;;;5123863;27;20204;-68
2021/07/03 05:29:00;;;;;;;43.83;24.52;;;18.70;99.90;;;;;;5126434;27;20196;-69
2021/07/03 05:31:26;;;;;;;43.45;25.17;;;18.80;99.90;;;;;;5127163;27;20300;-70
2021/07/03 05:33:55;;;;;;;45.40;25.63;;;18.80;99.90;;;;;;5126239;27;20232;-69
2021/07/03 05:36:21;;;;;;;47.05;27.73;;;18.80;99.90;;;;;;5104106;27;20200;-68
2021/07/03 05:38:49;;;;;;;45.47;26.75;;;18.80;99.90;;;;;;5126328;27;20249;-70
2021/07/03 05:41:18;;;;;;;48.88;27.38;;;18.80;99.90;;;;;;5126899;27;20200;-69
2021/07/03 05:43:45;;;;;;;51.28;28.98;;;18.80;99.90;;;;;;5126332;27;20196;-70
2021/07/03 05:46:13;;;;;;;48.90;28.05;;;18.80;99.90;;;;;;5124624;27;20203;-68
2021/07/03 05:48:41;;;;;;;49.42;28.52;;;18.70;99.90;;;;;;5125135;27;20204;-68
2021/07/03 05:51:10;;;;;;;51.95;28.55;;;18.80;99.90;;;;;;5125498;27;20212;-70
2021/07/03 05:53:37;;;;;;;50.03;29.17;;;18.80;99.90;;;;;;5125964;27;20215;-68
2021/07/03 05:56:04;;;;;;;55.80;31.52;;;18.80;99.90;;;;;;5125470;27;20737;-70
2021/07/03 05:58:31;;;;;;;54.47;32.15;;;18.80;99.90;;;;;;5102713;27;20611;-69
2021/07/03 06:00:58;;;;;;;55.83;31.20;;;18.80;99.90;;;;;;5128663;27;20234;-70
2021/07/03 06:03:25;;;;;;;55.72;30.38;;;18.80;99.90;;;;;;5128162;27;20235;-69
2021/07/03 06:05:52;;;;;;;52.17;32.03;;;18.80;99.90;;;;;;5125060;27;20264;-69
2021/07/03 06:08:20;;;;;;;52.95;30.48;;;18.80;99.90;;;;;;5125993;27;20212;-69
2021/07/03 06:10:47;;;;;;;53.90;32.25;;;18.80;99.90;;;;;;5124820;27;20724;-68
2021/07/03 06:13:14;;;;;;;63.83;34.63;;;18.80;99.90;;;;;;5127936;27;20624;-68
2021/07/03 06:15:41;;;;;;;56.10;32.25;;;18.80;99.90;;;;;;5128604;27;21459;-70
2021/07/03 06:18:08;;;;;;;61.65;32.60;;;18.80;99.90;;;;;;5129603;27;20212;-68
2021/07/03 06:20:35;;;;;;;58.58;32.33;;;18.90;99.90;;;;;;5125006;27;20279;-67
2021/07/03 06:23:01;;;;;;;60.03;33.97;;;18.90;99.90;;;;;;5127582;27;22919;-70
2021/07/03 06:25:29;;;;;;;55.60;33.22;;;18.90;99.90;;;;;;5127154;27;20208;-69
2021/07/03 06:27:56;;;;;;;64.60;34.92;;;18.90;99.90;;;;;;5126823;27;20205;-70
2021/07/03 06:30:23;;;;;;;57.78;33.05;;;18.90;99.90;;;;;;5125493;27;20219;-70
2021/07/03 06:32:50;;;;;;;59.83;34.38;;;19.00;99.90;;;;;;5122490;27;20212;-69
2021/07/03 06:35:17;;;;;;;59.20;33.13;;;19.00;99.90;;;;;;5122929;27;20196;-70
2021/07/03 06:37:43;;;;;;;56.97;34.40;;;19.10;99.90;;;;;;5122679;27;20248;-67
2021/07/03 06:40:11;;;;;;;61.97;35.70;;;19.10;99.90;;;;;;5125672;27;20212;-69
2021/07/03 06:42:39;;;;;;;53.97;34.40;;;19.10;99.90;;;;;;5126309;27;20300;-69
2021/07/03 06:45:07;;;;;;;61.50;37.00;;;19.10;99.90;;;;;;5129365;27;20225;-68
2021/07/03 06:47:34;;;;;;;62.75;34.63;;;19.10;99.90;;;;;;5131952;27;20196;-69
2021/07/03 06:50:01;;;;;;;61.63;35.65;;;19.20;99.90;;;;;;5125256;27;20681;-69
2021/07/03 06:52:28;;;;;;;60.50;36.13;;;19.20;99.90;;;;;;5125710;27;20232;-70
2021/07/03 06:54:54;;;;;;;63.78;37.45;;;19.20;99.90;;;;;;5125889;27;20201;-68
2021/07/03 06:57:21;;;;;;;60.17;35.30;;;19.30;99.90;;;;;;5126132;27;20211;-69
2021/07/03 06:59:49;;;;;;;62.63;37.00;;;19.30;99.90;;;;;;5123351;27;20205;-66
2021/07/03 07:02:18;;;;;;;58.92;35.25;;;19.30;99.90;;;;;;5129411;27;20259;-68
2021/07/03 07:04:45;;;;;;;57.03;35.75;;;19.30;99.90;;;;;;5130669;27;20595;-69
2021/07/03 07:07:11;;;;;;;56.17;35.78;;;19.40;99.90;;;;;;5130799;27;20207;-67
2021/07/03 07:09:38;;;;;;;57.25;35.28;;;19.40;99.90;;;;;;5132526;27;20269;-67
2021/07/03 07:12:05;;;;;;;57.72;34.30;;;19.50;99.90;;;;;;5128852;27;20200;-68
2021/07/03 07:14:32;;;;;;;58.00;34.25;;;19.50;99.90;;;;;;5129610;27;20193;-71
2021/07/03 07:17:00;;;;;;;60.47;34.53;;;19.60;99.90;;;;;;5131424;27;20197;-68
2021/07/03 07:19:27;;;;;;;55.05;33.80;;;19.60;99.90;;;;;;5130051;27;20204;-71
2021/07/03 07:21:54;;;;;;;52.30;32.38;;;19.60;99.90;;;;;;5131314;27;20216;-68
2021/07/03 07:24:21;;;;;;;53.88;33.40;;;19.70;99.90;;;;;;5107716;27;20189;-70
2021/07/03 07:26:48;;;;;;;54.65;32.65;;;19.70;99.90;;;;;;5126026;27;20546;-69
2021/07/03 07:29:15;;;;;;;51.15;32.47;;;19.80;99.90;;;;;;5134456;27;20261;-68
2021/07/03 07:31:41;;;;;;;56.83;33.13;;;19.80;99.90;;;;;;5129098;27;20208;-68
2021/07/03 07:34:10;;;;;;;59.50;34.00;;;19.80;99.90;;;;;;5130118;27;20213;-66
2021/07/03 07:36:37;;;;;;;53.63;32.67;;;19.90;99.90;;;;;;5127298;27;20204;-68
2021/07/03 07:39:04;;;;;;;51.03;31.63;;;19.90;99.90;;;;;;5128343;27;20200;-67
2021/07/03 07:41:31;;;;;;;52.13;32.17;;;20.00;99.90;;;;;;5129175;27;20728;-68
2021/07/03 07:43:58;;;;;;;48.90;31.05;;;20.10;99.90;;;;;;5133972;27;20228;-69
2021/07/03 07:46:24;;;;;;;54.35;30.80;;;20.10;99.90;;;;;;5128117;27;20225;-69
2021/07/03 07:48:51;;;;;;;46.40;29.85;;;20.10;99.90;;;;;;5129145;27;20196;-67
2021/07/03 07:51:20;;;;;;;52.78;30.80;;;20.20;99.90;;;;;;5128333;27;20287;-67
2021/07/03 07:53:47;;;;;;;46.75;30.35;;;20.20;99.90;;;;;;5113759;27;20235;-68
2021/07/03 07:56:17;;;;;;;47.30;30.52;;;20.30;99.90;;;;;;5129121;27;20201;-70
2021/07/03 07:58:43;;;;;;;47.60;28.48;;;20.30;99.90;;;;;;5129009;27;20676;-67
2021/07/03 08:01:12;;;;;;;46.03;27.83;;;20.40;99.90;;;;;;5114525;27;20517;-69
2021/07/03 08:03:39;;;;;;;44.10;28.50;;;20.40;99.90;;;;;;5130333;27;20276;-67
2021/07/03 08:06:06;;;;;;;41.22;27.00;;;20.50;99.90;;;;;;5107435;27;20265;-69
2021/07/03 08:08:34;;;;;;;41.47;27.10;;;20.60;99.90;;;;;;5129606;27;20712;-69
2021/07/03 08:11:01;;;;;;;42.10;26.00;;;20.70;99.90;;;;;;5126763;27;20196;-68
2021/07/03 08:13:28;;;;;;;40.28;26.98;;;20.80;99.90;;;;;;5130738;27;20219;-69
2021/07/03 08:15:55;;;;;;;46.28;26.77;;;20.90;99.90;;;;;;5127810;27;20204;-69
2021/07/03 08:18:23;;;;;;;37.95;25.70;;;21.00;99.90;;;;;;5130340;27;20212;-67
2021/07/03 08:20:52;;;;;;;38.47;25.08;;;21.10;99.90;;;;;;5126926;27;20197;-68
2021/07/03 08:23:19;;;;;;;41.28;25.00;;;21.20;99.90;;;;;;5132576;27;20219;-68
2021/07/03 08:25:48;;;;;;;40.67;24.48;;;21.20;99.90;;;;;;5128519;27;20204;-68
2021/07/03 08:28:15;;;;;;;39.22;24.90;;;21.30;99.90;;;;;;5130133;27;20653;-69
2021/07/03 08:30:42;;;;;;;33.65;24.15;;;21.30;99.90;;;;;;5126432;27;20253;-68
2021/07/03 08:33:09;;;;;;;40.00;25.02;;;21.40;99.90;;;;;;5128712;27;20265;-67
2021/07/03 08:35:37;;;;;;;38.33;24.08;;;21.40;99.90;;;;;;5129765;27;20192;-67
2021/07/03 08:38:04;;;;;;;41.42;25.85;;;21.50;99.90;;;;;;5127524;27;20197;-69
2021/07/03 08:40:31;;;;;;;38.90;25.05;;;21.50;99.70;;;;;;5127241;27;21234;-68
2021/07/03 08:42:59;;;;;;;35.33;25.48;;;21.60;99.90;;;;;;5130242;27;20196;-70
2021/07/03 08:45:26;;;;;;;36.72;24.33;;;21.60;99.40;;;;;;5128984;27;20196;-70
2021/07/03 08:47:53;;;;;;;37.75;24.08;;;21.60;99.10;;;;;;5110251;27;20332;-67
2021/07/03 08:50:20;;;;;;;34.78;23.80;;;21.70;99.00;;;;;;5127499;27;20200;-68
2021/07/03 08:52:47;;;;;;;33.85;21.92;;;21.70;98.90;;;;;;5128064;27;20283;-68
2021/07/03 08:55:17;;;;;;;37.30;22.48;;;21.80;98.90;;;;;;5131635;27;20197;-69
2021/07/03 08:57:46;;;;;;;33.70;22.92;;;21.80;98.70;;;;;;5126918;27;20272;-69
2021/07/03 09:00:16;;;;;;;29.27;21.73;;;21.80;98.60;;;;;;5127626;27;20672;-69
2021/07/03 09:02:47;;;;;;;35.90;22.95;;;21.90;98.40;;;;;;5127407;27;20687;-70
2021/07/03 09:05:26;;;;;;;33.67;21.75;;;21.90;98.10;;;;;;5129386;27;20201;-69
2021/07/03 09:07:58;;;;;;;31.63;22.75;;;21.90;97.80;;;;;;5122450;27;20790;-68
2021/07/03 09:10:26;;;;;;;32.65;22.30;;;22.00;97.50;;;;;;5127820;27;20203;-68
2021/07/03 09:12:54;;;;;;;32.03;21.88;;;22.00;97.40;;;;;;5113606;27;20196;-70
2021/07/03 09:15:24;;;;;;;30.45;20.90;;;22.10;97.30;;;;;;5124945;27;20691;-67
2021/07/03 09:17:53;;;;;;;31.60;21.45;;;22.10;97.30;;;;;;5126184;27;20230;-67
2021/07/03 09:20:29;;;;;;;36.67;20.45;;;22.10;97.20;;;;;;5128797;27;20204;-70
2021/07/03 09:23:01;;;;;;;32.05;20.00;;;22.20;97.10;;;;;;5125170;27;20204;-69
2021/07/03 09:25:28;;;;;;;35.03;20.98;;;22.20;97.10;;;;;;5124961;27;20200;-69
2021/07/03 09:27:56;;;;;;;31.35;19.83;;;22.20;96.80;;;;;;5126544;27;20192;-70
2021/07/03 09:30:24;;;;;;;30.60;19.98;;;22.20;96.60;;;;;;5128735;27;20304;-69
2021/07/03 09:32:53;;;;;;;34.63;20.15;;;22.30;96.40;;;;;;5106561;27;20215;-69
2021/07/03 09:35:21;;;;;;;30.00;20.38;;;22.30;96.30;;;;;;5126074;27;20707;-69
2021/07/03 09:37:49;;;;;;;31.02;21.05;;;22.30;96.20;;;;;;5124963;27;20288;-68
2021/07/03 09:40:17;;;;;;;34.53;20.15;;;22.30;96.10;;;;;;5129163;27;20662;-69
2021/07/03 09:42:44;;;;;;;29.63;19.67;;;22.30;96.00;;;;;;5126280;27;20207;-70
2021/07/03 09:45:12;;;;;;;29.75;19.63;;;22.30;96.10;;;;;;5128368;27;20344;-68
2021/07/03 09:47:40;;;;;;;26.95;19.42;;;22.30;96.40;;;;;;5125419;27;20288;-69
2021/07/03 09:50:09;;;;;;;32.53;21.10;;;22.30;96.00;;;;;;5128194;27;20208;-74
2021/07/03 09:52:37;;;;;;;30.50;20.38;;;22.30;96.00;;;;;;5126076;27;20192;-68
2021/07/03 09:55:06;;;;;;;28.90;19.75;;;22.40;96.00;;;;;;5108448;27;20220;-74
2021/07/03 09:57:37;;;;;;;29.77;20.90;;;22.40;95.90;;;;;;5125094;27;20196;-69
2021/07/03 10:00:07;;;;;;;32.40;20.20;;;22.40;95.80;;;;;;5128381;27;20287;-70
2021/07/03 10:02:37;;;;;;;29.20;19.75;;;22.40;95.80;;;;;;5124051;27;20225;-69
2021/07/03 10:05:06;;;;;;;30.67;20.60;;;22.40;95.90;;;;;;5128840;27;20207;-67
2021/07/03 10:07:39;;;;;;;26.42;18.98;;;22.40;95.70;;;;;;5126192;27;20227;-69
2021/07/03 10:10:12;;;;;;;35.53;19.48;;;22.40;95.60;;;;;;5127094;27;20660;-68
2021/07/03 10:12:42;;;;;;;29.90;19.20;;;22.40;95.60;;;;;;5126248;27;20196;-68
2021/07/03 10:15:10;;;;;;;30.95;19.38;;;22.40;95.50;;;;;;5127649;27;20216;-70
2021/07/03 10:17:37;;;;;;;30.27;19.20;;;22.40;95.40;;;;;;5127074;27;20257;-68
2021/07/03 10:20:14;;;;;;;32.38;18.40;;;22.40;95.30;;;;;;5127112;27;20681;-70
2021/07/03 10:22:52;;;;;;;25.20;18.25;;;22.40;95.20;;;;;;5133831;27;20203;-67
2021/07/03 10:25:20;;;;;;;26.95;18.10;;;22.40;95.20;;;;;;5125875;27;20204;-69
2021/07/03 10:27:52;;;;;;;26.70;18.58;;;22.50;95.30;;;;;;5127982;27;20249;-68
2021/07/03 10:30:25;;;;;;;27.92;18.55;;;22.50;95.40;;;;;;5130064;27;20200;-68
2021/07/03 10:32:56;;;;;;;30.23;19.27;;;22.50;95.50;;;;;;5126201;27;20291;-70
2021/07/03 10:35:26;;;;;;;26.50;18.30;;;22.50;95.60;;;;;;5130956;27;20211;-69
2021/07/03 10:37:54;;;;;;;24.73;17.70;;;22.60;95.60;;;;;;5130806;27;20562;-69
2021/07/03 10:40:23;;;;;;;37.22;18.38;;;22.70;95.50;;;;;;5130599;27;20560;-70
2021/07/03 10:42:51;;;;;;;26.65;16.25;;;22.80;95.50;;;;;;5130302;27;20223;-70
2021/07/03 10:45:20;;;;;;;25.83;16.55;;;22.80;95.30;;;;;;5130639;27;20328;-70
2021/07/03 10:47:47;;;;;;;23.55;15.95;;;22.90;95.20;;;;;;5131374;27;20200;-68
2021/07/03 10:50:27;;;;;;;22.33;16.25;;;23.00;95.00;;;;;;5124097;27;20593;-66
2021/07/03 10:52:56;;;;;;;21.83;15.00;;;23.00;94.80;;;;;;5128915;27;20212;-67
2021/07/03 10:55:31;;;;;;;21.35;14.85;;;23.00;94.60;;;;;;5131335;27;20228;-67
2021/07/03 10:57:59;;;;;;;20.17;15.38;;;23.00;94.30;;;;;;5129457;27;20204;-66
2021/07/03 11:00:26;;;;;;;22.77;15.48;;;23.10;94.20;;;;;;5131172;27;20607;-65
2021/07/03 11:02:53;;;;;;;21.45;14.80;;;23.10;94.10;;;;;;5100890;27;20233;-65
2021/07/03 11:05:20;;;;;;;23.02;14.15;;;23.20;94.00;;;;;;5090993;28;20250;-71
2021/07/03 11:07:49;;;;;;;20.38;13.20;;;23.20;93.70;;;;;;5086295;28;20205;-67
2021/07/03 11:10:18;;;;;;;18.77;13.10;;;23.20;93.20;;;;;;5089786;28;20228;-69
2021/07/03 11:12:49;;;;;;;21.92;12.45;;;23.20;92.80;;;;;;5088420;28;20200;-64
2021/07/03 11:15:18;;;;;;;19.08;12.77;;;23.10;92.50;;;;;;5089807;28;20224;-67
2021/07/03 11:17:45;;;;;;;27.52;12.98;;;23.10;92.40;;;;;;5088832;28;20255;-71
2021/07/03 11:20:23;;;;;;;20.67;12.20;;;23.20;92.30;;;;;;5089815;28;20210;-71
2021/07/03 11:22:52;;;;;;;20.60;12.43;;;23.20;92.30;;;;;;5088968;28;20202;-70
2021/07/03 11:25:28;;;;;;;23.67;12.38;;;23.20;92.40;;;;;;5090444;28;20233;-68
2021/07/03 11:28:04;;;;;;;19.60;11.98;;;23.20;92.30;;;;;;5087747;28;20247;-67
2021/07/03 11:30:31;;;;;;;19.27;12.55;;;23.30;92.30;;;;;;5086895;28;20227;-68
2021/07/03 11:32:59;;;;;;;18.33;12.80;;;23.30;92.20;;;;;;5088439;28;20217;-70
2021/07/03 11:35:28;;;;;;;19.52;13.60;;;23.30;92.20;;;;;;5088298;28;20213;-68
2021/07/03 11:37:57;;;;;;;19.70;14.20;;;23.40;92.10;;;;;;5088925;28;20258;-68
2021/07/03 11:40:26;;;;;;;17.73;11.77;;;23.40;92.20;;;;;;5090318;28;20605;-69
2021/07/03 11:42:56;;;;;;;17.58;11.30;;;23.40;92.20;;;;;;5088799;28;20202;-68
2021/07/03 11:45:25;;;;;;;15.65;11.65;;;23.50;92.20;;;;;;5088950;28;20222;-69
2021/07/03 11:47:53;;;;;;;14.38;10.45;;;23.50;92.20;;;;;;5086362;28;20198;-67
2021/07/03 11:50:32;;;;;;;16.80;10.60;;;23.60;92.20;;;;;;5087419;28;20206;-69
2021/07/03 11:53:02;;;;;;;18.83;10.70;;;23.60;92.00;;;;;;5087001;28;20197;-68
2021/07/03 11:55:31;;;;;;;16.27;10.25;;;23.60;91.80;;;;;;5088655;28;20629;-70
2021/07/03 11:57:59;;;;;;;13.10;9.90;;;23.70;91.60;;;;;;5088053;28;20254;-70
2021/07/03 12:00:28;;;;;;;14.70;10.65;;;23.70;91.50;;;;;;5089469;28;20205;-68
2021/07/03 12:02:57;;;;;;;13.75;10.02;;;23.70;91.30;;;;;;5116042;27;20228;-69
2021/07/03 12:05:26;;;;;;;15.07;11.63;;;23.70;91.10;;;;;;5129036;27;20293;-70
2021/07/03 12:07:58;;;;;;;16.75;10.55;;;23.70;91.00;;;;;;5129965;27;20208;-68
2021/07/03 12:10:36;;;;;;;12.07;9.25;;;23.70;90.90;;;;;;5127609;27;20224;-69
2021/07/03 12:13:04;;;;;;;14.18;9.25;;;23.70;90.90;;;;;;5132389;27;20200;-70
2021/07/03 12:15:31;;;;;;;14.65;10.23;;;23.80;90.90;;;;;;5110919;27;20231;-67
2021/07/03 12:17:59;;;;;;;14.18;10.20;;;23.80;90.90;;;;;;5129817;27;20577;-68
2021/07/03 12:20:26;;;;;;;17.52;10.82;;;23.90;91.00;;;;;;5129643;27;20572;-66
2021/07/03 12:23:02;;;;;;;15.77;10.93;;;24.00;91.20;;;;;;5106740;27;20617;-71
2021/07/03 12:25:31;;;;;;;16.08;11.40;;;24.10;91.10;;;;;;5133354;27;20192;-67
2021/07/03 12:28:01;;;;;;;17.08;10.95;;;24.20;91.10;;;;;;5130742;27;20200;-67
2021/07/03 12:30:30;;;;;;;19.70;11.07;;;24.30;91.00;;;;;;5127166;27;20201;-69
2021/07/03 12:33:08;;;;;;;16.67;11.77;;;24.40;91.10;;;;;;5129122;27;20528;-69
2021/07/03 12:35:41;;;;;;;14.40;11.05;;;24.40;90.70;;;;;;5129044;27;20315;-68